Time;durP1;ratioP1;P1;durP2;ratioP2;P2;SDS_P1;SDS_P2;PMS_P1;PMS_P2;Temp;Humidity;BMP_temperature;BMP_pressure;BME280_temperature;BME280_humidity;BME280_pressure;Samples;Min_cycle;Max_cycle;Signal;HPM_P1;HPM_P2
2022/03/29 00:00:40;;;;;;;17.70;13.40;;;14.20;76.80;;;;;;4993064;28;20578;-76
2022/03/29 00:03:06;;;;;;;15.67;12.30;;;14.20;76.90;;;;;;4996992;28;20197;-76
2022/03/29 00:05:32;;;;;;;17.65;11.68;;;14.20;77.10;;;;;;4975807;28;20213;-76
2022/03/29 00:07:59;;;;;;;24.90;12.63;;;14.10;77.80;;;;;;4997543;23;20299;-76
2022/03/29 00:10:25;;;;;;;15.90;11.88;;;14.10;77.90;;;;;;5023891;28;20269;-76
2022/03/29 00:12:53;;;;;;;13.15;10.13;;;14.10;78.00;;;;;;5014423;28;20173;-76
2022/03/29 00:15:20;;;;;;;16.85;11.45;;;14.00;77.90;;;;;;5032273;28;20169;-76
2022/03/29 00:17:47;;;;;;;17.13;11.85;;;14.00;78.50;;;;;;5014216;28;20540;-76
2022/03/29 00:20:14;;;;;;;16.70;10.15;;;14.00;78.60;;;;;;5032003;28;20583;-76
2022/03/29 00:22:40;;;;;;;15.43;10.77;;;13.90;78.70;;;;;;5014395;28;20185;-76
2022/03/29 00:25:07;;;;;;;14.60;11.77;;;13.90;79.00;;;;;;5032037;28;20181;-76
2022/03/29 00:27:35;;;;;;;18.02;10.80;;;13.90;79.30;;;;;;5031668;28;20197;-76
2022/03/29 00:30:01;;;;;;;19.75;11.77;;;13.90;79.50;;;;;;5014176;28;20176;-76
2022/03/29 00:32:27;;;;;;;19.13;11.40;;;13.90;80.00;;;;;;5032107;28;20170;-76
2022/03/29 00:34:53;;;;;;;16.57;9.97;;;13.80;80.10;;;;;;5031496;28;20158;-76
2022/03/29 00:37:19;;;;;;;21.87;11.33;;;13.80;80.30;;;;;;5031507;28;20217;-75
2022/03/29 00:39:44;;;;;;;16.53;10.90;;;13.80;80.70;;;;;;5031672;28;20593;-76
2022/03/29 00:42:10;;;;;;;18.80;11.80;;;13.80;80.90;;;;;;4997919;28;20217;-76
2022/03/29 00:44:38;;;;;;;12.70;9.77;;;13.80;81.00;;;;;;5031728;28;20205;-76
2022/03/29 00:47:05;;;;;;;14.38;10.98;;;13.80;81.10;;;;;;5031552;28;20209;-76
2022/03/29 00:49:31;;;;;;;13.90;11.07;;;13.70;81.70;;;;;;5014271;28;20166;-76
2022/03/29 00:52:02;;;;;;;16.60;11.38;;;13.70;81.70;;;;;;5021782;28;20200;-76
2022/03/29 00:54:32;;;;;;;17.75;11.50;;;13.70;82.30;;;;;;5023630;28;20204;-75
2022/03/29 00:56:58;;;;;;;15.60;11.15;;;13.70;82.30;;;;;;5031380;28;20225;-76
2022/03/29 00:59:25;;;;;;;17.25;11.25;;;13.70;82.70;;;;;;5031615;28;20654;-76
2022/03/29 01:01:52;;;;;;;20.98;13.15;;;13.60;83.40;;;;;;5013824;28;20256;-76
2022/03/29 01:04:17;;;;;;;17.55;11.73;;;13.60;83.50;;;;;;5013855;28;20230;-75
2022/03/29 01:06:44;;;;;;;17.53;11.13;;;13.60;84.10;;;;;;5013894;28;20170;-76
2022/03/29 01:09:11;;;;;;;17.13;11.25;;;13.60;84.60;;;;;;5031616;28;20557;-75
2022/03/29 01:11:38;;;;;;;14.88;12.02;;;13.60;85.00;;;;;;5014491;28;20261;-76
2022/03/29 01:14:04;;;;;;;13.50;10.48;;;13.60;84.90;;;;;;4997715;28;20208;-76
2022/03/29 01:19:17;;;;;;;14.93;10.80;;;13.60;85.20;;;;;;5031072;28;20175;-74
2022/03/29 01:22:10;;;;;;;16.85;12.18;;;13.60;85.20;;;;;;5031140;28;20218;-75
2022/03/29 01:24:43;;;;;;;17.63;10.73;;;13.50;85.60;;;;;;5027317;28;20243;-74
2022/03/29 01:27:11;;;;;;;15.10;11.70;;;13.50;86.30;;;;;;5030816;28;20712;-75
2022/03/29 01:29:38;;;;;;;17.92;11.27;;;13.50;86.20;;;;;;5013280;28;20173;-76
2022/03/29 01:32:07;;;;;;;15.95;10.93;;;13.40;86.50;;;;;;5031137;28;20500;-74
2022/03/29 01:34:35;;;;;;;18.42;12.23;;;13.40;86.90;;;;;;5031224;28;20223;-75
2022/03/29 01:37:03;;;;;;;16.70;11.98;;;13.40;87.30;;;;;;5031000;28;20189;-74
2022/03/29 01:39:29;;;;;;;17.95;11.88;;;13.40;87.80;;;;;;5030691;28;20170;-75
2022/03/29 01:41:54;;;;;;;17.20;12.50;;;13.40;87.90;;;;;;5031029;28;20185;-74
2022/03/29 01:44:20;;;;;;;12.80;10.50;;;13.40;88.30;;;;;;5013713;28;20165;-76
2022/03/29 01:46:46;;;;;;;18.60;10.23;;;13.40;88.30;;;;;;5033752;28;20165;-75
2022/03/29 01:49:13;;;;;;;17.33;10.73;;;13.30;88.40;;;;;;5034670;28;20642;-74
2022/03/29 01:51:39;;;;;;;20.20;11.85;;;13.40;88.80;;;;;;5034628;28;20590;-74
2022/03/29 01:54:05;;;;;;;14.43;11.17;;;13.30;88.90;;;;;;5034671;28;20249;-75
2022/03/29 01:56:34;;;;;;;21.90;12.33;;;13.30;89.20;;;;;;5017259;28;20166;-74
2022/03/29 01:59:04;;;;;;;14.93;10.63;;;13.40;89.50;;;;;;5004607;28;20624;-74
2022/03/29 02:01:30;;;;;;;16.52;11.65;;;13.40;90.00;;;;;;5026359;28;20533;-74
2022/03/29 02:03:56;;;;;;;14.30;11.17;;;13.30;90.10;;;;;;5017035;28;20257;-74
2022/03/29 02:06:21;;;;;;;14.57;10.70;;;13.30;90.20;;;;;;5034666;28;20169;-74
2022/03/29 02:08:47;;;;;;;18.83;10.60;;;13.30;90.20;;;;;;5016280;28;20259;-74
2022/03/29 02:11:13;;;;;;;17.57;10.97;;;13.30;90.30;;;;;;5016860;28;20162;-75
2022/03/29 02:13:39;;;;;;;15.10;10.77;;;13.30;90.50;;;;;;5034733;28;20170;-75
2022/03/29 02:16:05;;;;;;;13.20;11.23;;;13.20;90.50;;;;;;5016778;28;20572;-74
2022/03/29 02:18:31;;;;;;;20.40;12.02;;;13.20;90.70;;;;;;5034313;28;20197;-75
2022/03/29 02:20:57;;;;;;;18.80;10.48;;;13.30;91.00;;;;;;5034237;28;20222;-75
2022/03/29 02:23:23;;;;;;;17.37;10.90;;;13.20;91.10;;;;;;5016885;28;20642;-75
2022/03/29 02:25:49;;;;;;;16.33;10.97;;;13.30;91.00;;;;;;5016826;28;20630;-75
2022/03/29 02:28:15;;;;;;;23.45;12.32;;;13.20;91.40;;;;;;5033903;28;20231;-75
2022/03/29 02:30:41;;;;;;;13.90;11.20;;;13.20;91.30;;;;;;5034185;28;20161;-75
2022/03/29 02:33:07;;;;;;;18.48;11.93;;;13.20;91.30;;;;;;4984200;28;20177;-75
2022/03/29 02:35:33;;;;;;;13.23;11.57;;;13.30;91.50;;;;;;5034179;28;20150;-75
2022/03/29 02:37:59;;;;;;;15.10;10.20;;;13.20;91.50;;;;;;5033646;28;20189;-75
2022/03/29 02:40:25;;;;;;;15.57;10.83;;;13.20;91.50;;;;;;5034010;28;20165;-75
2022/03/29 02:42:53;;;;;;;16.95;11.45;;;13.20;91.60;;;;;;5016438;28;20576;-75
2022/03/29 02:45:24;;;;;;;17.42;11.18;;;13.20;91.90;;;;;;5034055;28;20176;-75
2022/03/29 02:47:52;;;;;;;17.10;10.95;;;13.30;92.10;;;;;;5033644;28;20201;-75
2022/03/29 02:50:19;;;;;;;19.65;11.95;;;13.30;92.20;;;;;;5000074;28;20177;-75
2022/03/29 02:52:49;;;;;;;17.73;13.82;;;13.30;92.20;;;;;;5015910;28;20223;-75
2022/03/29 02:55:18;;;;;;;16.70;12.15;;;13.30;92.50;;;;;;5033806;28;20232;-75
2022/03/29 02:57:44;;;;;;;15.43;11.68;;;13.30;92.40;;;;;;5015323;28;20272;-75
2022/03/29 03:00:15;;;;;;;16.73;11.30;;;13.30;92.40;;;;;;5035480;28;20170;-75
2022/03/29 03:02:51;;;;;;;12.85;10.63;;;13.30;92.60;;;;;;5035829;28;20198;-75
2022/03/29 03:05:21;;;;;;;15.30;11.27;;;13.30;92.80;;;;;;5053138;28;20203;-74
2022/03/29 03:07:47;;;;;;;17.77;11.00;;;13.30;92.70;;;;;;5052591;28;20211;-74
2022/03/29 03:10:14;;;;;;;14.38;10.38;;;13.30;92.70;;;;;;5035896;28;20174;-75
2022/03/29 03:12:45;;;;;;;18.70;13.38;;;13.30;92.90;;;;;;5033575;28;20193;-74
2022/03/29 03:15:14;;;;;;;16.65;11.80;;;13.30;93.20;;;;;;5019532;28;20189;-74
2022/03/29 03:17:40;;;;;;;16.60;12.43;;;13.30;93.10;;;;;;5001067;28;20201;-75
2022/03/29 03:20:07;;;;;;;13.27;10.00;;;13.30;93.00;;;;;;5039681;28;20517;-75
2022/03/29 03:22:35;;;;;;;16.02;10.68;;;13.30;93.00;;;;;;5034377;28;20510;-75
2022/03/29 03:25:01;;;;;;;18.52;10.73;;;13.30;93.20;;;;;;5016187;28;20174;-75
2022/03/29 03:27:27;;;;;;;15.63;11.27;;;13.30;93.10;;;;;;5033293;28;20207;-75
2022/03/29 03:29:53;;;;;;;17.90;10.57;;;13.30;93.30;;;;;;5033388;28;20216;-75
2022/03/29 03:32:18;;;;;;;16.07;11.20;;;13.30;93.50;;;;;;5033574;28;20200;-75
2022/03/29 03:34:44;;;;;;;15.30;10.40;;;13.20;93.30;;;;;;5015713;28;20174;-75
2022/03/29 03:37:10;;;;;;;19.53;11.80;;;13.20;93.50;;;;;;4998956;28;20208;-74
2022/03/29 03:39:40;;;;;;;16.10;11.37;;;13.10;93.80;;;;;;4997351;28;20585;-75
2022/03/29 03:42:11;;;;;;;15.27;10.80;;;13.10;93.90;;;;;;5013378;28;20180;-74
2022/03/29 03:44:38;;;;;;;15.40;10.85;;;13.10;93.90;;;;;;5001168;28;20178;-75
2022/03/29 03:47:10;;;;;;;17.30;10.60;;;13.10;93.80;;;;;;5018535;28;20256;-74
2022/03/29 03:49:37;;;;;;;15.60;11.80;;;13.00;94.00;;;;;;4980704;28;20623;-74
2022/03/29 03:52:04;;;;;;;16.75;11.85;;;13.00;94.00;;;;;;5012967;28;20229;-75
2022/03/29 03:54:30;;;;;;;21.45;11.70;;;13.00;94.00;;;;;;5013304;28;20197;-75
2022/03/29 03:56:55;;;;;;;20.50;12.40;;;13.00;94.10;;;;;;5013004;28;20194;-74
2022/03/29 03:59:21;;;;;;;13.67;11.17;;;13.00;94.30;;;;;;5012738;28;20177;-74
2022/03/29 04:01:47;;;;;;;16.83;11.77;;;13.00;94.40;;;;;;4995349;28;20600;-75
2022/03/29 04:04:12;;;;;;;17.73;12.70;;;12.90;94.40;;;;;;4995110;28;20190;-75
2022/03/29 04:06:38;;;;;;;19.60;12.80;;;12.90;94.60;;;;;;5011437;28;20171;-75
2022/03/29 04:09:04;;;;;;;21.00;14.27;;;13.00;94.80;;;;;;5011793;28;20668;-76
2022/03/29 04:11:30;;;;;;;17.67;10.55;;;12.90;94.90;;;;;;5012624;28;20523;-75
2022/03/29 04:13:59;;;;;;;14.43;10.60;;;12.90;94.90;;;;;;5012945;28;20197;-75
2022/03/29 04:16:27;;;;;;;18.02;11.88;;;12.90;95.00;;;;;;5012603;28;20561;-75
2022/03/29 04:18:53;;;;;;;20.10;12.13;;;12.90;95.00;;;;;;4994542;28;20670;-75
2022/03/29 04:21:18;;;;;;;15.10;10.30;;;12.90;95.10;;;;;;4994763;28;20179;-75
2022/03/29 04:23:44;;;;;;;22.73;12.50;;;12.90;95.20;;;;;;5012537;28;20600;-75
2022/03/29 04:26:10;;;;;;;17.17;12.00;;;12.80;95.20;;;;;;4995136;28;20179;-75
2022/03/29 04:28:37;;;;;;;18.17;12.25;;;12.80;95.40;;;;;;4994745;28;20639;-75
2022/03/29 04:31:03;;;;;;;16.30;12.02;;;12.80;95.50;;;;;;4994912;28;20170;-75
2022/03/29 04:33:28;;;;;;;17.65;12.00;;;12.80;95.70;;;;;;5011295;28;20248;-75
2022/03/29 04:35:55;;;;;;;14.97;10.93;;;12.80;95.70;;;;;;5012254;28;20154;-75
2022/03/29 04:38:21;;;;;;;18.83;11.90;;;12.80;95.80;;;;;;4993775;28;20693;-75
2022/03/29 04:40:47;;;;;;;21.80;14.27;;;12.80;96.00;;;;;;5012161;28;20217;-75
2022/03/29 04:43:13;;;;;;;16.27;11.90;;;12.80;96.10;;;;;;5012206;28;20170;-75
2022/03/29 04:45:39;;;;;;;19.83;14.27;;;12.80;96.30;;;;;;5012094;28;20562;-75
2022/03/29 04:48:05;;;;;;;20.37;12.27;;;12.80;96.40;;;;;;4994145;28;21091;-75
2022/03/29 04:50:31;;;;;;;21.05;13.98;;;12.80;96.40;;;;;;5010701;28;20177;-75
2022/03/29 04:52:57;;;;;;;15.55;10.82;;;12.80;96.40;;;;;;4978063;28;20176;-75
2022/03/29 04:55:23;;;;;;;14.73;10.50;;;12.80;96.40;;;;;;5010875;28;20595;-75
2022/03/29 04:57:50;;;;;;;17.93;12.40;;;12.70;96.40;;;;;;4994037;28;20205;-75
2022/03/29 05:00:20;;;;;;;21.10;13.75;;;12.70;96.60;;;;;;5011918;28;20208;-75
2022/03/29 05:02:46;;;;;;;16.95;11.63;;;12.70;96.70;;;;;;5014317;28;20232;-76
2022/03/29 05:05:13;;;;;;;18.25;13.93;;;12.70;96.80;;;;;;4994564;28;20170;-76
2022/03/29 05:07:40;;;;;;;21.73;13.85;;;12.70;96.90;;;;;;4994102;28;20279;-76
2022/03/29 05:10:08;;;;;;;21.52;11.93;;;12.70;97.00;;;;;;5011876;28;20173;-75
2022/03/29 05:12:43;;;;;;;22.70;13.93;;;12.70;97.20;;;;;;5011763;28;20177;-75
2022/03/29 05:15:10;;;;;;;16.23;11.23;;;12.70;97.50;;;;;;5010816;28;20217;-75
2022/03/29 05:17:36;;;;;;;18.35;12.95;;;12.70;97.30;;;;;;5011647;28;20749;-75
2022/03/29 05:20:06;;;;;;;18.93;13.37;;;12.70;97.40;;;;;;4995739;28;20185;-75
2022/03/29 05:22:32;;;;;;;17.45;12.90;;;12.70;97.50;;;;;;4998303;28;21086;-75
2022/03/29 05:24:58;;;;;;;19.97;13.60;;;12.70;97.60;;;;;;4998243;28;20214;-75
2022/03/29 05:27:26;;;;;;;20.58;12.85;;;12.70;97.70;;;;;;4997954;28;20212;-75
2022/03/29 05:29:52;;;;;;;21.35;13.52;;;12.70;97.80;;;;;;5015458;28;20244;-75
2022/03/29 05:32:21;;;;;;;13.53;10.50;;;12.70;97.90;;;;;;5014442;28;20194;-75
2022/03/29 05:34:47;;;;;;;17.67;13.15;;;12.70;97.80;;;;;;5015432;28;20521;-75
2022/03/29 05:37:15;;;;;;;19.27;14.60;;;12.80;97.90;;;;;;4997559;28;20198;-76
2022/03/29 05:39:43;;;;;;;17.90;13.32;;;12.70;98.00;;;;;;5013943;28;20576;-75
2022/03/29 05:42:10;;;;;;;23.20;13.60;;;12.80;98.00;;;;;;5015499;28;20175;-76
2022/03/29 05:44:37;;;;;;;19.40;14.57;;;12.80;98.10;;;;;;5015777;28;20209;-76
2022/03/29 05:49:52;;;;;;;20.10;13.00;;;12.80;98.30;;;;;;5015121;28;20171;-76
2022/03/29 05:52:18;;;;;;;26.10;15.02;;;12.90;98.30;;;;;;4981398;28;20174;-76
2022/03/29 05:54:46;;;;;;;18.25;13.75;;;12.90;98.30;;;;;;5015184;28;20661;-76
2022/03/29 05:57:17;;;;;;;19.00;12.75;;;12.90;98.20;;;;;;4996015;28;20205;-74
2022/03/29 05:59:44;;;;;;;16.48;13.07;;;12.90;98.20;;;;;;4996518;28;20198;-75
2022/03/29 06:02:10;;;;;;;16.52;13.55;;;13.00;98.30;;;;;;4996465;28;20174;-75
2022/03/29 06:04:36;;;;;;;19.10;14.43;;;13.00;98.30;;;;;;4981077;28;20170;-74
2022/03/29 06:07:06;;;;;;;20.45;14.73;;;13.00;98.30;;;;;;5014228;28;20673;-75
2022/03/29 06:09:33;;;;;;;19.55;14.90;;;13.10;98.50;;;;;;5014496;28;20178;-75
2022/03/29 06:11:59;;;;;;;20.45;14.38;;;13.10;98.60;;;;;;4996965;28;20174;-75
2022/03/29 06:14:25;;;;;;;18.90;14.27;;;13.10;98.50;;;;;;4997037;28;20171;-75
2022/03/29 06:16:51;;;;;;;20.40;14.15;;;13.20;98.60;;;;;;5018437;28;20636;-75
2022/03/29 06:19:17;;;;;;;19.02;14.98;;;13.30;98.70;;;;;;4996630;28;20170;-76
2022/03/29 06:21:43;;;;;;;18.80;14.40;;;13.30;98.60;;;;;;5014354;28;20171;-75
2022/03/29 06:24:10;;;;;;;21.70;16.70;;;13.40;98.70;;;;;;5014175;28;20173;-76
2022/03/29 06:26:38;;;;;;;19.55;15.05;;;13.40;98.70;;;;;;5014199;28;20253;-75
2022/03/29 06:29:05;;;;;;;21.77;15.80;;;13.50;98.80;;;;;;4996343;28;20198;-75
2022/03/29 06:31:31;;;;;;;22.38;14.82;;;13.60;99.00;;;;;;5012733;28;20166;-76
2022/03/29 06:33:56;;;;;;;20.10;14.27;;;13.60;98.90;;;;;;5014097;28;20177;-75
2022/03/29 06:36:25;;;;;;;18.50;14.87;;;13.70;98.90;;;;;;4996380;28;20578;-77
2022/03/29 06:38:51;;;;;;;20.90;15.95;;;13.70;99.00;;;;;;5013441;28;20723;-76
2022/03/29 06:41:17;;;;;;;21.00;15.73;;;13.80;99.10;;;;;;5013811;28;20194;-76
2022/03/29 06:43:43;;;;;;;19.10;13.00;;;13.90;99.10;;;;;;5014049;28;20167;-76
2022/03/29 06:46:09;;;;;;;23.10;15.07;;;14.00;99.10;;;;;;5013801;28;21020;-78
2022/03/29 06:48:42;;;;;;;17.03;13.27;;;14.00;99.20;;;;;;5013257;28;20293;-78
2022/03/29 06:51:09;;;;;;;22.20;13.45;;;14.10;99.30;;;;;;5012311;28;20185;-78
2022/03/29 06:53:39;;;;;;;28.15;14.38;;;14.20;99.30;;;;;;5018818;28;20541;-78
2022/03/29 06:56:07;;;;;;;35.38;15.60;;;14.20;99.40;;;;;;4992850;28;20797;-77
2022/03/29 06:58:37;;;;;;;27.90;18.70;;;14.30;99.90;;;;;;4993924;28;21115;-75
2022/03/29 07:01:03;;;;;;;22.30;15.07;;;14.30;99.90;;;;;;4968818;28;20179;-75
2022/03/29 07:03:30;;;;;;;18.25;14.85;;;14.30;99.90;;;;;;4992185;28;20210;-75
2022/03/29 07:05:58;;;;;;;20.48;15.90;;;14.40;99.90;;;;;;4999770;28;20233;-76
2022/03/29 07:08:25;;;;;;;20.00;15.82;;;14.50;99.80;;;;;;4987334;28;20209;-76
2022/03/29 07:13:35;;;;;;;23.02;15.35;;;14.70;99.50;;;;;;5005597;28;20174;-75
2022/03/29 07:16:01;;;;;;;19.43;14.03;;;14.70;99.30;;;;;;5014777;28;20236;-75
2022/03/29 07:18:26;;;;;;;21.13;14.57;;;14.80;99.10;;;;;;5012646;28;20641;-75
2022/03/29 07:20:53;;;;;;;17.33;13.90;;;14.80;99.00;;;;;;5013363;28;20170;-75
2022/03/29 07:23:18;;;;;;;17.98;15.02;;;14.80;99.00;;;;;;5013364;28;20175;-75
2022/03/29 07:25:44;;;;;;;19.23;14.47;;;14.90;98.90;;;;;;4995787;28;20179;-75
2022/03/29 07:28:11;;;;;;;19.50;16.07;;;14.90;98.80;;;;;;4995156;28;20201;-75
2022/03/29 07:30:41;;;;;;;23.73;17.75;;;15.00;98.80;;;;;;5012625;28;20194;-75
2022/03/29 07:33:07;;;;;;;22.83;17.45;;;15.10;98.80;;;;;;4995395;28;20702;-76
2022/03/29 07:35:33;;;;;;;19.98;14.80;;;15.10;98.60;;;;;;5013184;28;20162;-76
2022/03/29 07:38:00;;;;;;;23.10;17.10;;;15.20;98.60;;;;;;4995069;28;20205;-75
2022/03/29 07:40:28;;;;;;;19.55;16.08;;;15.30;98.70;;;;;;5011580;28;20577;-75
2022/03/29 07:42:54;;;;;;;25.70;16.65;;;15.40;98.70;;;;;;4995373;28;20201;-76
2022/03/29 07:45:20;;;;;;;21.67;16.30;;;15.60;98.80;;;;;;5012759;28;20171;-76
2022/03/29 07:47:51;;;;;;;16.10;13.03;;;15.80;98.80;;;;;;4994981;28;20644;-75
2022/03/29 07:50:18;;;;;;;17.37;14.50;;;16.00;98.70;;;;;;5011406;28;20607;-75
2022/03/29 07:52:44;;;;;;;18.10;15.47;;;16.20;98.50;;;;;;5012378;28;21191;-75
2022/03/29 07:55:11;;;;;;;20.03;16.37;;;16.40;98.30;;;;;;5011424;28;20656;-76
2022/03/29 07:57:39;;;;;;;19.40;14.07;;;16.50;97.80;;;;;;5012596;28;21034;-76
2022/03/29 08:02:53;;;;;;;16.23;13.40;;;16.80;97.40;;;;;;5011642;28;20599;-76
2022/03/29 08:05:20;;;;;;;20.93;15.53;;;17.10;97.40;;;;;;5012429;28;20672;-76
2022/03/29 08:07:46;;;;;;;16.53;14.03;;;17.30;97.20;;;;;;5014165;28;20652;-76
2022/03/29 08:10:12;;;;;;;17.53;14.50;;;17.50;97.00;;;;;;5012585;28;20565;-76
2022/03/29 08:12:40;;;;;;;16.90;13.83;;;17.80;96.90;;;;;;5012414;28;20612;-76
2022/03/29 08:15:08;;;;;;;16.00;13.77;;;18.20;96.80;;;;;;4994789;28;20573;-76
2022/03/29 08:17:34;;;;;;;16.27;14.17;;;18.50;96.40;;;;;;5012042;28;21049;-76
2022/03/29 08:20:01;;;;;;;18.37;14.20;;;18.90;96.30;;;;;;4995334;28;20646;-76
2022/03/29 08:22:27;;;;;;;15.97;13.23;;;19.30;95.90;;;;;;5022904;28;20616;-76
2022/03/29 08:24:53;;;;;;;16.30;14.60;;;19.60;95.50;;;;;;5020106;28;20595;-76
2022/03/29 08:27:18;;;;;;;15.03;13.47;;;19.70;93.90;;;;;;5002836;28;20649;-76
2022/03/29 08:29:44;;;;;;;14.93;13.50;;;19.80;93.20;;;;;;5008490;28;20592;-76
2022/03/29 08:32:10;;;;;;;17.00;13.80;;;19.80;92.80;;;;;;5011667;28;20170;-76
2022/03/29 08:34:36;;;;;;;15.50;13.37;;;19.70;91.60;;;;;;5009633;28;20597;-78
2022/03/29 08:37:02;;;;;;;15.80;13.23;;;19.60;91.40;;;;;;5011391;28;21172;-76
2022/03/29 08:39:27;;;;;;;15.53;13.93;;;19.30;89.60;;;;;;5011029;28;20185;-76
2022/03/29 08:42:02;;;;;;;18.63;15.10;;;19.20;90.40;;;;;;5012622;28;20174;-76
2022/03/29 08:44:32;;;;;;;16.37;12.50;;;19.00;89.50;;;;;;4999335;28;20173;-76
2022/03/29 08:46:58;;;;;;;17.87;14.10;;;18.90;90.00;;;;;;4994161;28;20577;-76
2022/03/29 08:49:24;;;;;;;14.60;12.63;;;18.80;89.00;;;;;;5010175;28;20974;-75
2022/03/29 08:51:51;;;;;;;14.20;11.33;;;18.70;90.00;;;;;;5010577;28;20685;-77
2022/03/29 08:54:17;;;;;;;14.20;12.70;;;18.70;90.10;;;;;;5010686;28;20671;-76
2022/03/29 08:56:42;;;;;;;14.30;11.93;;;18.60;90.00;;;;;;5011121;28;20688;-77
2022/03/29 08:59:08;;;;;;;17.33;14.27;;;18.70;90.40;;;;;;4980760;28;20676;-76
2022/03/29 09:01:34;;;;;;;13.17;11.50;;;18.90;90.70;;;;;;5011281;28;20177;-77
2022/03/29 09:04:11;;;;;;;12.80;11.07;;;18.90;90.30;;;;;;4993940;28;20178;-76
2022/03/29 09:06:56;;;;;;;16.43;14.40;;;19.00;90.00;;;;;;5002573;28;21139;-77
2022/03/29 09:09:40;;;;;;;15.47;12.80;;;18.90;84.20;;;;;;5017693;28;20596;-77
2022/03/29 09:12:18;;;;;;;14.57;12.40;;;19.00;87.90;;;;;;5013859;28;20653;-76
2022/03/29 09:14:54;;;;;;;17.43;14.90;;;18.90;87.10;;;;;;5031430;28;20929;-77
2022/03/29 09:17:35;;;;;;;16.40;12.47;;;18.80;82.30;;;;;;5013371;28;20651;-77
2022/03/29 09:20:12;;;;;;;15.33;13.17;;;18.80;85.70;;;;;;5035302;28;20576;-76
2022/03/29 09:22:42;;;;;;;12.93;11.53;;;18.80;86.30;;;;;;5031941;28;20591;-77
2022/03/29 09:25:33;;;;;;;16.23;12.13;;;18.80;86.30;;;;;;5031297;28;20671;-76
2022/03/29 09:28:03;;;;;;;14.50;11.80;;;18.80;85.70;;;;;;5030841;28;20646;-77
2022/03/29 09:30:52;;;;;;;13.97;11.93;;;18.90;86.30;;;;;;5024050;28;20963;-77
2022/03/29 09:33:30;;;;;;;14.17;12.30;;;19.00;85.50;;;;;;5011132;28;20581;-76
2022/03/29 09:36:00;;;;;;;15.87;10.73;;;19.20;86.60;;;;;;5003606;28;20599;-77
2022/03/29 09:38:29;;;;;;;12.33;10.70;;;19.50;87.50;;;;;;4994956;28;20648;-77
2022/03/29 09:40:57;;;;;;;13.70;11.47;;;19.80;87.30;;;;;;4994271;28;20584;-77
2022/03/29 09:44:08;;;;;;;16.07;10.57;;;20.20;86.80;;;;;;5015969;28;20608;-77
2022/03/29 09:46:59;;;;;;;12.53;11.13;;;20.40;84.40;;;;;;5001890;28;20588;-77
2022/03/29 09:49:26;;;;;;;12.50;10.83;;;20.70;83.00;;;;;;5010805;28;20643;-77
2022/03/29 09:52:10;;;;;;;10.77;9.77;;;21.10;83.90;;;;;;4978148;28;21144;-77
2022/03/29 09:54:37;;;;;;;11.03;9.83;;;21.30;82.90;;;;;;4993704;28;20585;-77
2022/03/29 09:57:04;;;;;;;10.10;8.60;;;21.50;80.90;;;;;;5013012;28;20668;-77
2022/03/29 09:59:32;;;;;;;11.87;8.87;;;21.60;80.30;;;;;;4999608;28;20582;-77
2022/03/29 10:01:58;;;;;;;9.53;8.53;;;21.70;79.50;;;;;;4974046;28;20570;-77
2022/03/29 10:04:33;;;;;;;10.17;9.07;;;21.80;78.40;;;;;;4991400;28;20677;-77
2022/03/29 10:07:04;;;;;;;10.23;9.13;;;21.90;77.40;;;;;;4979810;28;20608;-76
2022/03/29 10:09:33;;;;;;;9.83;8.80;;;22.00;76.90;;;;;;4997012;28;20593;-76
2022/03/29 10:12:07;;;;;;;10.60;9.50;;;22.20;77.10;;;;;;4997071;28;21049;-76
2022/03/29 10:14:34;;;;;;;10.33;9.30;;;22.40;76.30;;;;;;5013389;28;20568;-77
2022/03/29 10:17:00;;;;;;;10.13;9.13;;;22.70;76.00;;;;;;4980745;28;20651;-76
2022/03/29 10:19:26;;;;;;;9.30;7.37;;;22.90;75.30;;;;;;4994434;28;20566;-77
2022/03/29 10:21:59;;;;;;;9.53;8.60;;;23.00;74.70;;;;;;5006561;28;20584;-76
2022/03/29 10:24:25;;;;;;;9.10;8.20;;;23.20;73.50;;;;;;4996943;28;20185;-77
2022/03/29 10:26:55;;;;;;;9.77;8.20;;;23.30;72.20;;;;;;5013818;28;20697;-76
2022/03/29 10:29:23;;;;;;;9.33;8.43;;;23.40;71.40;;;;;;5013900;28;20584;-76
2022/03/29 10:31:57;;;;;;;9.87;8.90;;;23.60;71.40;;;;;;5012629;28;21028;-76
2022/03/29 10:34:26;;;;;;;10.00;8.27;;;23.90;71.20;;;;;;5000154;28;20591;-76
2022/03/29 10:36:58;;;;;;;9.83;7.80;;;24.30;72.40;;;;;;4996437;28;20585;-76
2022/03/29 10:39:49;;;;;;;8.70;7.40;;;24.60;69.10;;;;;;5013673;28;20593;-77
2022/03/29 10:42:29;;;;;;;10.13;7.50;;;24.70;68.90;;;;;;4996254;28;20573;-77
2022/03/29 10:45:14;;;;;;;12.73;8.13;;;24.90;65.60;;;;;;5004919;28;20589;-77
2022/03/29 10:47:42;;;;;;;8.93;7.57;;;24.80;64.00;;;;;;4995743;28;20644;-77
2022/03/29 10:50:10;;;;;;;8.27;7.57;;;24.90;64.80;;;;;;5005822;28;20934;-77
2022/03/29 10:52:44;;;;;;;8.90;7.40;;;25.00;64.20;;;;;;4976859;28;20917;-77
2022/03/29 10:55:21;;;;;;;7.47;6.57;;;25.20;63.80;;;;;;4976459;28;20586;-77
2022/03/29 10:58:08;;;;;;;7.87;7.17;;;25.40;63.20;;;;;;4997449;28;20645;-77
2022/03/29 11:00:45;;;;;;;7.13;6.43;;;25.50;61.80;;;;;;4995923;28;20577;-77
2022/03/29 11:03:14;;;;;;;8.27;6.90;;;25.50;57.90;;;;;;4995965;28;20581;-77
2022/03/29 11:06:08;;;;;;;6.70;6.10;;;25.50;59.70;;;;;;5013792;28;21269;-77
2022/03/29 11:08:42;;;;;;;6.13;5.53;;;25.30;56.70;;;;;;5003113;28;20648;-77
2022/03/29 11:11:37;;;;;;;7.50;5.07;;;25.30;57.90;;;;;;5013258;28;20638;-77
2022/03/29 11:14:33;;;;;;;6.50;5.03;;;25.30;57.80;;;;;;5033039;28;20600;-77
2022/03/29 11:17:14;;;;;;;4.97;4.40;;;25.30;57.80;;;;;;5032610;28;20671;-76
2022/03/29 11:19:50;;;;;;;4.70;3.93;;;25.30;56.10;;;;;;5032931;28;20560;-77
2022/03/29 11:22:22;;;;;;;5.17;4.73;;;25.20;56.20;;;;;;4998856;28;20575;-77
2022/03/29 11:25:00;;;;;;;5.70;4.83;;;25.30;56.30;;;;;;5015162;28;20569;-76
2022/03/29 11:27:34;;;;;;;4.87;4.43;;;25.30;56.00;;;;;;5032415;28;20963;-77
2022/03/29 11:30:05;;;;;;;5.50;5.00;;;25.50;56.00;;;;;;5032809;28;20662;-77
2022/03/29 11:32:34;;;;;;;4.60;4.20;;;25.50;55.50;;;;;;5001348;28;20596;-77
2022/03/29 11:35:02;;;;;;;5.60;4.50;;;25.60;56.00;;;;;;5013190;28;20581;-75
2022/03/29 11:37:28;;;;;;;5.63;4.53;;;25.70;56.00;;;;;;4995184;28;20620;-77
2022/03/29 11:39:54;;;;;;;4.77;4.37;;;25.80;54.90;;;;;;5013021;28;20577;-77
2022/03/29 11:42:20;;;;;;;6.10;5.50;;;25.80;55.00;;;;;;5012826;28;20668;-77
2022/03/29 11:44:48;;;;;;;5.37;4.87;;;25.80;54.40;;;;;;5035379;28;20608;-82
2022/03/29 11:47:13;;;;;;;6.17;5.23;;;25.80;54.30;;;;;;5028632;28;20210;-83
2022/03/29 11:49:41;;;;;;;5.60;5.10;;;25.90;54.00;;;;;;5042624;28;20623;-82
2022/03/29 11:52:15;;;;;;;5.47;4.97;;;25.90;54.00;;;;;;5037406;28;20182;-82
2022/03/29 11:54:45;;;;;;;5.27;4.83;;;26.00;53.60;;;;;;5049937;28;20592;-82
2022/03/29 11:57:16;;;;;;;6.00;5.30;;;26.10;52.70;;;;;;5037139;28;20636;-82
2022/03/29 11:59:42;;;;;;;5.30;4.70;;;26.10;53.00;;;;;;5032955;28;20797;-82
2022/03/29 12:02:08;;;;;;;5.73;5.23;;;26.20;53.00;;;;;;5029041;28;20600;-82
2022/03/29 12:04:37;;;;;;;7.23;6.53;;;26.20;52.50;;;;;;5007025;28;20633;-82
2022/03/29 12:07:03;;;;;;;6.03;5.00;;;26.10;52.00;;;;;;5035431;28;20639;-82
2022/03/29 12:09:30;;;;;;;7.47;4.80;;;26.00;52.00;;;;;;5034025;28;20570;-82
2022/03/29 12:11:59;;;;;;;3.77;3.43;;;25.90;51.60;;;;;;5007849;28;20593;-81
2022/03/29 12:14:26;;;;;;;4.50;2.90;;;25.70;51.10;;;;;;4999010;28;20657;-81
2022/03/29 12:16:55;;;;;;;6.57;4.37;;;25.60;51.00;;;;;;5014379;28;20653;-81
2022/03/29 12:19:25;;;;;;;4.53;3.43;;;25.40;50.80;;;;;;5020183;28;20585;-81
2022/03/29 12:22:00;;;;;;;3.90;3.33;;;25.20;50.80;;;;;;5037519;28;20605;-82
2022/03/29 12:24:37;;;;;;;4.43;3.23;;;25.00;50.60;;;;;;5011685;28;20597;-80
2022/03/29 12:27:13;;;;;;;4.63;3.70;;;24.70;50.40;;;;;;5023374;28;20604;-81
2022/03/29 12:30:01;;;;;;;4.80;3.60;;;24.50;50.50;;;;;;4996972;28;20605;-82
2022/03/29 12:32:28;;;;;;;5.70;5.03;;;24.40;50.60;;;;;;5025305;28;20597;-84
2022/03/29 12:34:59;;;;;;;11.70;7.43;;;24.20;50.40;;;;;;5022106;28;20558;-84
2022/03/29 12:37:27;;;;;;;11.03;7.80;;;23.90;50.10;;;;;;5024518;28;20648;-83
2022/03/29 12:39:55;;;;;;;6.30;5.70;;;23.60;50.30;;;;;;5024524;28;20592;-83
2022/03/29 12:42:21;;;;;;;9.47;7.20;;;23.40;50.30;;;;;;5028059;28;20577;-82
2022/03/29 12:44:56;;;;;;;7.27;5.60;;;23.20;50.40;;;;;;5029008;28;20585;-81
2022/03/29 12:47:40;;;;;;;7.00;6.30;;;23.00;50.70;;;;;;5029627;28;20206;-81
2022/03/29 12:50:07;;;;;;;7.00;6.27;;;22.90;51.00;;;;;;5016424;28;20613;-81